Aeroporto :
LOGIN :

Iscrizione | Disclaimer

   EN    FR    IT 

 










Sommario :    VFR   VFR Marginale   IFR   IFR Intensivo   IFR Molto Intensivo
Visibilità : 
Base nubi : 
>= 8 km
>= 3000ft
5 / 8 km
1000 / 3000 ft
1500m / 5 km
500 / 1000 ft
800 / 1500m
200 / 500 ft
< 800m
< 200 ft
Simboli :   Temporali  Nebbia  Neve Forte  Precipitazioni Forti  Vento > 20 kt
SIGMETs :   Varie  Temporali  Ghiacco  Turbolenza  Onda orograficha  Ceneri Vulcaniche






- Altitudine del aeroporto : 1090 ft
- Codice IATA : CFE


LFLC - Clermont-Ferrand Auvergne

ULTIMO METAR :
  • 250200Z AUTO 02002KT 9999 FEW041 BKN058 OVC074 12/11 Q1013 TEMPO 4000 RA BKN008 SCT020TCU

METARs OBSOLETI :
  • 250130Z AUTO 13001KT 9999 BKN041 BKN047 OVC074 12/12 Q1014 TEMPO 4000 RA BKN008 SCT020TCU
  • 250030Z AUTO 12002KT 9999 SCT054/// BKN074/// BKN120/// ///TCU 12/11 Q1014 TEMPO 4000 RA BKN008 SCT020TCU

TAF TAF LFLC
Valido dal 25 a 00 ore il 26 a 00 ore UTC


242300Z 2500/2524 VRB05KT 9999 OVC035
TEMPO 2500/2511 4000 RA BKN008 SCT020TCU
BECMG 2510/2512 36008KT
PROB40
TEMPO 2511/2513 BKN006
BECMG 2512/2514 SCT018 SCT050
PROB30
TEMPO 2514/2518 -SHRA FEW020TCU BKN040
ATIS : +33 4 73 62 74 38



MetMap, La meteo Aeronautica in un colpo d'occhio ! - Copyright ORBIFLY Dicembre 2007 - Disclaimer

ORBIFLY MET'MAP TEAM :

Programmazione e sviluppo : Alexandra Zaïnal
Concezione : Baudouin d'Aumeries
Supporto tecnico e logistico : Manuel Goepfert
Aiuto : Marc-Olivier Méhu
Aiuto per la traduzione : Arnaldo La Scala




FONTI E CREDITI :

   NOAA